createdAt,value
2018-09-17T00:00:22.116Z,20.79
2018-09-17T00:02:50.658Z,20.75
2018-09-17T00:05:18.898Z,20.71
2018-09-17T00:07:47.391Z,20.65
2018-09-17T00:10:15.841Z,20.60
2018-09-17T00:12:44.504Z,20.62
2018-09-17T00:15:12.865Z,20.43
2018-09-17T00:17:41.262Z,20.39
2018-09-17T00:20:09.556Z,20.35
2018-09-17T00:22:37.927Z,20.38
2018-09-17T00:25:06.421Z,20.54
2018-09-17T00:27:34.919Z,20.39
2018-09-17T00:30:03.341Z,20.34
2018-09-17T00:32:31.720Z,20.36
2018-09-17T00:35:00.077Z,20.43
2018-09-17T00:37:28.665Z,20.42
2018-09-17T00:39:56.993Z,20.30
2018-09-17T00:42:25.496Z,20.38
2018-09-17T00:44:53.865Z,20.37
2018-09-17T00:47:22.145Z,20.32
2018-09-17T00:49:50.530Z,20.29
2018-09-17T00:52:18.872Z,20.26
2018-09-17T00:54:47.241Z,20.32
2018-09-17T00:57:15.525Z,20.35
2018-09-17T00:59:43.903Z,20.24
2018-09-17T01:02:12.207Z,20.32
2018-09-17T01:04:40.672Z,20.29
2018-09-17T01:07:09.050Z,20.24
2018-09-17T01:09:43.263Z,20.14
2018-09-17T01:12:12.918Z,20.18
2018-09-17T01:14:41.350Z,20.12
2018-09-17T01:17:09.606Z,20.24
2018-09-17T01:19:37.994Z,20.13
2018-09-17T01:22:06.404Z,20.06
2018-09-17T01:24:34.707Z,20.11
2018-09-17T01:27:03.872Z,20.02
2018-09-17T01:29:32.332Z,20.01
2018-09-17T01:32:00.777Z,19.82
2018-09-17T01:34:29.031Z,19.83
2018-09-17T01:36:57.437Z,19.79
2018-09-17T01:39:25.948Z,19.89
2018-09-17T01:41:54.317Z,19.84
2018-09-17T01:44:22.659Z,19.89
2018-09-17T01:46:50.996Z,19.97
2018-09-17T01:49:19.308Z,19.74
2018-09-17T01:51:47.666Z,19.81
2018-09-17T01:54:15.965Z,19.78
2018-09-17T01:56:44.289Z,19.71
2018-09-17T01:59:12.682Z,19.68
2018-09-17T02:01:40.964Z,19.77
2018-09-17T02:04:09.299Z,19.68
2018-09-17T02:06:37.599Z,19.78
2018-09-17T02:09:07.222Z,19.36
2018-09-17T02:11:35.440Z,19.55
2018-09-17T02:14:03.768Z,19.61
2018-09-17T02:16:32.076Z,19.39
2018-09-17T02:19:00.418Z,19.64
2018-09-17T02:21:28.684Z,19.65
2018-09-17T02:23:56.962Z,19.67
2018-09-17T02:26:25.325Z,19.65
2018-09-17T02:28:53.632Z,19.60
2018-09-17T02:31:21.972Z,19.60
2018-09-17T02:33:50.290Z,19.71
2018-09-17T02:36:18.564Z,19.56
2018-09-17T02:38:46.873Z,19.60
2018-09-17T02:41:15.233Z,19.53
2018-09-17T02:43:43.655Z,19.52
2018-09-17T02:46:12.067Z,19.42
2018-09-17T02:48:40.461Z,19.42
2018-09-17T02:51:08.781Z,19.41
2018-09-17T02:53:37.191Z,19.52
2018-09-17T02:56:05.440Z,19.63
2018-09-17T02:58:33.742Z,19.61
2018-09-17T03:01:02.098Z,19.58
2018-09-17T03:03:30.369Z,19.67
2018-09-17T03:05:58.703Z,19.55
2018-09-17T03:08:27.012Z,19.62
2018-09-17T03:10:55.387Z,19.56
2018-09-17T03:13:23.723Z,19.55
2018-09-17T03:15:53.975Z,19.51
2018-09-17T03:18:34.884Z,19.48
2018-09-17T03:21:04.567Z,19.44
2018-09-17T03:23:34.757Z,19.47
2018-09-17T03:26:03.852Z,19.44
2018-09-17T03:28:32.338Z,19.40
2018-09-17T03:31:00.612Z,19.45
2018-09-17T03:33:29.126Z,19.45
2018-09-17T03:35:57.419Z,19.41
2018-09-17T03:38:34.995Z,19.28
2018-09-17T03:41:05.508Z,19.31
2018-09-17T03:43:34.768Z,19.35
2018-09-17T03:46:03.175Z,19.33
2018-09-17T03:48:32.948Z,19.32
2018-09-17T03:51:02.209Z,19.22
2018-09-17T03:53:31.014Z,19.18
2018-09-17T03:55:59.866Z,19.10
2018-09-17T03:58:28.756Z,18.95
2018-09-17T04:00:57.265Z,19.11
2018-09-17T04:03:25.615Z,19.19
2018-09-17T04:05:53.935Z,19.21
2018-09-17T04:08:22.334Z,19.23
2018-09-17T04:10:50.629Z,19.12
2018-09-17T04:13:19.069Z,19.02
2018-09-17T04:15:47.611Z,19.18
2018-09-17T04:18:16.097Z,19.19
2018-09-17T04:20:44.462Z,18.93
2018-09-17T04:23:12.839Z,19.46
2018-09-17T04:25:41.181Z,19.55
2018-09-17T04:28:09.522Z,19.54
2018-09-17T04:30:37.933Z,19.80
2018-09-17T04:33:07.349Z,19.80
2018-09-17T04:35:35.634Z,19.63
2018-09-17T04:38:03.984Z,19.56
2018-09-17T04:40:32.253Z,19.37
2018-09-17T04:43:00.643Z,19.35
2018-09-17T04:45:28.982Z,19.38
2018-09-17T04:47:57.341Z,19.23
2018-09-17T04:50:25.663Z,19.44
2018-09-17T04:52:53.990Z,20.68
2018-09-17T04:55:22.380Z,21.63
2018-09-17T04:57:50.749Z,21.67
2018-09-17T05:00:19.111Z,21.34
2018-09-17T05:02:47.540Z,20.81
2018-09-17T05:05:15.807Z,20.31
2018-09-17T05:07:44.137Z,19.99
2018-09-17T05:10:12.437Z,19.80
2018-09-17T05:12:40.729Z,20.79
2018-09-17T05:15:09.047Z,20.50
2018-09-17T05:17:37.375Z,20.20
2018-09-17T05:20:05.707Z,20.16
2018-09-17T05:22:34.102Z,19.93
2018-09-17T05:25:03.032Z,19.85
2018-09-17T05:27:31.325Z,20.26
2018-09-17T05:29:59.714Z,20.31
2018-09-17T05:32:27.999Z,19.97
2018-09-17T05:34:57.237Z,19.76
2018-09-17T05:37:25.659Z,19.60
2018-09-17T05:39:53.991Z,19.52
2018-09-17T05:42:22.393Z,19.32
2018-09-17T05:44:50.963Z,19.56
2018-09-17T05:47:19.216Z,19.92
2018-09-17T05:49:47.562Z,20.26
2018-09-17T05:52:15.997Z,20.33
2018-09-17T05:54:44.290Z,20.24
2018-09-17T05:57:12.601Z,20.08
2018-09-17T05:59:40.957Z,20.21
2018-09-17T06:02:09.354Z,20.26
2018-09-17T06:04:37.700Z,20.37
2018-09-17T06:07:06.100Z,20.33
2018-09-17T06:09:34.382Z,20.52
2018-09-17T06:12:02.942Z,20.41
2018-09-17T06:14:31.399Z,20.52
2018-09-17T06:16:59.776Z,20.62
2018-09-17T06:19:28.124Z,20.74
2018-09-17T06:21:56.808Z,20.83
2018-09-17T06:24:25.165Z,20.97
2018-09-17T06:26:53.590Z,21.12
2018-09-17T06:29:22.014Z,21.44
2018-09-17T06:31:50.260Z,21.40
2018-09-17T06:34:18.717Z,21.38
2018-09-17T06:36:47.086Z,21.62
2018-09-17T06:39:15.664Z,21.42
2018-09-17T06:41:44.050Z,21.45
2018-09-17T06:44:12.562Z,21.43
2018-09-17T06:46:40.977Z,21.86
2018-09-17T06:49:09.267Z,22.14
2018-09-17T06:51:37.563Z,22.60
2018-09-17T06:54:05.881Z,22.95
2018-09-17T06:56:34.210Z,22.80
2018-09-17T06:59:02.714Z,22.87
2018-09-17T07:01:31.069Z,23.19
2018-09-17T07:03:59.393Z,23.23
2018-09-17T07:06:27.734Z,23.36
2018-09-17T07:08:56.058Z,23.69
2018-09-17T07:11:24.376Z,23.85
2018-09-17T07:13:52.871Z,24.21
2018-09-17T07:16:21.193Z,24.29
2018-09-17T07:18:49.972Z,24.16
2018-09-17T07:21:18.308Z,23.85
2018-09-17T07:23:47.506Z,23.80
2018-09-17T07:26:15.870Z,23.87
2018-09-17T07:28:44.209Z,24.06
2018-09-17T07:31:12.465Z,24.03
2018-09-17T07:33:40.765Z,24.23
2018-09-17T07:36:09.220Z,24.33
2018-09-17T07:38:37.520Z,24.29
2018-09-17T07:41:05.912Z,24.25
2018-09-17T07:43:34.242Z,24.85
2018-09-17T07:46:02.621Z,25.25
2018-09-17T07:48:30.940Z,25.46
2018-09-17T07:50:59.319Z,25.25
2018-09-17T07:53:27.675Z,25.56
2018-09-17T07:55:55.952Z,25.67
2018-09-17T07:58:24.251Z,25.79
2018-09-17T08:00:52.605Z,25.94
2018-09-17T08:03:21.092Z,25.47
2018-09-17T08:05:49.471Z,25.68
2018-09-17T08:08:17.941Z,25.61
2018-09-17T08:10:46.425Z,25.78
2018-09-17T08:13:14.800Z,25.92
2018-09-17T08:15:43.169Z,25.75
2018-09-17T08:18:11.480Z,26.39
2018-09-17T08:20:39.869Z,26.34
2018-09-17T08:23:08.224Z,26.40
2018-09-17T08:25:36.568Z,26.32
2018-09-17T08:28:05.192Z,26.67
2018-09-17T08:30:33.529Z,26.89
2018-09-17T08:33:01.998Z,27.14
2018-09-17T08:35:30.301Z,27.11
2018-09-17T08:37:58.616Z,27.16
2018-09-17T08:40:26.900Z,27.55
2018-09-17T08:42:56.161Z,27.67
2018-09-17T08:45:24.469Z,27.72
2018-09-17T08:47:52.780Z,27.58
2018-09-17T08:50:21.171Z,28.03
2018-09-17T08:52:49.488Z,27.73
2018-09-17T08:55:22.963Z,28.13
2018-09-17T08:57:56.421Z,28.24
2018-09-17T09:00:30.089Z,28.14
2018-09-17T09:03:03.555Z,28.11
2018-09-17T09:05:39.051Z,28.28
2018-09-17T09:08:08.196Z,28.41
2018-09-17T09:10:42.455Z,28.19
2018-09-17T09:13:15.985Z,27.78
2018-09-17T09:15:44.738Z,28.38
2018-09-17T09:18:13.074Z,28.56
2018-09-17T09:20:41.392Z,28.24
2018-09-17T09:23:09.764Z,28.48
2018-09-17T09:25:38.115Z,28.71
2018-09-17T09:28:06.440Z,29.15
2018-09-17T09:30:34.776Z,28.62
2018-09-17T09:33:03.096Z,27.90
2018-09-17T09:35:31.459Z,28.45
2018-09-17T09:37:59.840Z,28.41
2018-09-17T09:40:28.329Z,28.86
2018-09-17T09:42:56.644Z,29.30
2018-09-17T09:45:25.536Z,29.59
2018-09-17T09:47:54.557Z,29.74
2018-09-17T09:50:22.877Z,29.37
2018-09-17T09:52:51.315Z,28.98
2018-09-17T09:55:19.559Z,28.56
2018-09-17T09:57:47.931Z,29.16
2018-09-17T10:00:21.680Z,29.33
2018-09-17T10:02:55.354Z,29.43
2018-09-17T10:05:23.723Z,29.64
2018-09-17T10:07:52.571Z,29.44
2018-09-17T10:10:26.270Z,28.98
2018-09-17T10:12:59.942Z,29.32
2018-09-17T10:15:33.683Z,29.87
2018-09-17T10:18:07.077Z,29.80
2018-09-17T10:20:35.453Z,30.13
2018-09-17T10:23:04.233Z,30.30
2018-09-17T10:25:32.525Z,30.29
2018-09-17T10:28:00.802Z,29.36
2018-09-17T10:30:29.152Z,29.34
2018-09-17T10:32:57.492Z,29.88
2018-09-17T10:35:25.861Z,30.23
2018-09-17T10:37:54.165Z,30.53
2018-09-17T10:40:22.684Z,30.22
2018-09-17T10:42:51.182Z,30.30
2018-09-17T10:45:19.695Z,29.95
2018-09-17T10:47:47.977Z,30.06
2018-09-17T10:50:16.276Z,30.34
2018-09-17T10:52:44.636Z,30.56
2018-09-17T10:55:12.924Z,30.35
2018-09-17T10:57:41.314Z,30.26
2018-09-17T11:00:09.837Z,29.93
2018-09-17T11:02:38.142Z,30.64
2018-09-17T11:05:06.450Z,30.35
2018-09-17T11:07:35.016Z,30.11
2018-09-17T11:10:03.330Z,30.62
2018-09-17T11:12:31.614Z,30.85
2018-09-17T11:15:00.027Z,31.16
2018-09-17T11:17:29.209Z,31.35
2018-09-17T11:19:58.051Z,31.12
2018-09-17T11:22:26.744Z,31.26
2018-09-17T11:24:55.127Z,31.09
2018-09-17T11:27:23.545Z,31.65
2018-09-17T11:29:51.898Z,31.70
2018-09-17T11:32:20.790Z,31.86
2018-09-17T11:34:49.391Z,31.90
2018-09-17T11:37:17.702Z,32.29
2018-09-17T11:39:46.139Z,32.89
2018-09-17T11:42:14.532Z,32.98
2018-09-17T11:44:42.871Z,33.28
2018-09-17T11:47:11.207Z,34.26
2018-09-17T11:49:39.622Z,34.30
2018-09-17T11:52:07.978Z,33.28
2018-09-17T11:54:36.255Z,33.27
2018-09-17T11:57:04.631Z,34.71
2018-09-17T11:59:33.153Z,35.33
2018-09-17T12:02:04.322Z,36.44
2018-09-17T12:04:38.043Z,38.14
2018-09-17T12:08:10.530Z,38.89
2018-09-17T12:10:38.810Z,40.59
2018-09-17T12:13:07.154Z,41.65
2018-09-17T12:15:39.868Z,42.62
2018-09-17T12:18:08.835Z,40.84
2018-09-17T12:20:37.809Z,43.00
2018-09-17T12:23:06.739Z,45.52
2018-09-17T12:25:35.523Z,46.81
2018-09-17T12:28:03.891Z,48.18
2018-09-17T12:30:32.209Z,47.24
2018-09-17T12:33:00.793Z,46.61
2018-09-17T12:35:29.307Z,46.26
2018-09-17T12:37:57.822Z,46.92
2018-09-17T12:40:26.921Z,43.42
2018-09-17T12:42:55.463Z,44.34
2018-09-17T12:45:24.712Z,44.73
2018-09-17T12:47:53.744Z,45.43
2018-09-17T12:50:22.167Z,43.70
2018-09-17T12:52:50.522Z,44.84
2018-09-17T12:55:18.995Z,43.14
2018-09-17T12:57:47.443Z,44.44
2018-09-17T13:00:15.788Z,43.57
2018-09-17T13:02:44.183Z,43.42
2018-09-17T13:05:12.481Z,43.52
2018-09-17T13:07:41.129Z,40.45
2018-09-17T13:10:09.675Z,40.76
2018-09-17T13:12:37.988Z,41.96
2018-09-17T13:15:07.059Z,43.35
2018-09-17T13:17:35.343Z,45.31
2018-09-17T13:20:03.791Z,45.46
2018-09-17T13:22:32.449Z,45.51
2018-09-17T13:25:00.847Z,45.93
2018-09-17T13:27:30.253Z,45.82
2018-09-17T13:29:58.525Z,44.67
2018-09-17T13:32:26.826Z,43.74
2018-09-17T13:34:55.214Z,41.58
2018-09-17T13:37:24.128Z,41.13
2018-09-17T13:39:52.452Z,42.09
2018-09-17T13:42:21.220Z,42.72
2018-09-17T13:44:49.540Z,45.33
2018-09-17T13:47:17.855Z,44.93
2018-09-17T13:49:46.118Z,45.74
2018-09-17T13:52:14.567Z,44.66
2018-09-17T13:54:42.853Z,45.46
2018-09-17T13:57:11.219Z,45.48
2018-09-17T13:59:39.709Z,46.14
2018-09-17T14:02:08.061Z,48.26
2018-09-17T14:04:36.465Z,48.93
2018-09-17T14:07:04.958Z,50.49
2018-09-17T14:09:33.255Z,49.94
2018-09-17T14:12:01.652Z,48.06
2018-09-17T14:14:30.009Z,48.88
2018-09-17T14:16:58.334Z,50.38
2018-09-17T14:19:26.607Z,48.98
2018-09-17T14:21:55.032Z,48.17
2018-09-17T14:24:23.961Z,47.71
2018-09-17T14:26:52.253Z,49.45
2018-09-17T14:29:20.679Z,50.29
2018-09-17T14:31:54.412Z,50.72
2018-09-17T14:34:22.930Z,49.69
2018-09-17T14:36:51.266Z,49.72
2018-09-17T14:39:19.562Z,48.46
2018-09-17T14:41:47.874Z,49.88
2018-09-17T14:44:16.184Z,50.17
2018-09-17T14:46:44.455Z,51.25
2018-09-17T14:49:12.774Z,47.58
2018-09-17T14:51:41.033Z,49.85
2018-09-17T14:54:09.324Z,48.98
2018-09-17T14:56:37.627Z,50.43
2018-09-17T14:59:06.032Z,50.87
2018-09-17T15:01:35.264Z,51.60
2018-09-17T15:04:03.497Z,52.07
2018-09-17T15:06:31.916Z,52.31
2018-09-17T15:09:00.269Z,52.07
2018-09-17T15:11:29.027Z,49.63
2018-09-17T15:13:57.371Z,51.05
2018-09-17T15:16:25.796Z,52.10
2018-09-17T15:18:54.082Z,51.46
2018-09-17T15:21:22.541Z,51.88
2018-09-17T15:23:50.797Z,51.40
2018-09-17T15:26:19.238Z,51.03
2018-09-17T15:28:47.487Z,51.46
2018-09-17T15:31:15.892Z,52.18
2018-09-17T15:33:44.179Z,50.34
2018-09-17T15:36:13.443Z,50.76
2018-09-17T15:38:42.179Z,50.23
2018-09-17T15:41:10.861Z,49.62
2018-09-17T15:43:39.256Z,49.43
2018-09-17T15:46:07.586Z,48.73
2018-09-17T15:48:36.396Z,48.81
2018-09-17T15:51:04.887Z,48.85
2018-09-17T15:53:33.935Z,49.26
2018-09-17T15:56:02.253Z,49.74
2018-09-17T15:58:31.344Z,49.14
2018-09-17T16:00:59.744Z,48.99
2018-09-17T16:03:28.037Z,47.75
2018-09-17T16:05:56.499Z,48.44
2018-09-17T16:08:24.913Z,47.62
2018-09-17T16:10:53.456Z,47.22
2018-09-17T16:13:22.134Z,47.56
2018-09-17T16:15:50.561Z,47.34
2018-09-17T16:18:19.423Z,47.10
2018-09-17T16:20:48.046Z,46.73
2018-09-17T16:23:16.466Z,46.58
2018-09-17T16:25:45.297Z,46.01
2018-09-17T16:28:13.649Z,45.97
2018-09-17T16:30:41.944Z,45.10
2018-09-17T16:33:10.319Z,45.29
2018-09-17T16:35:39.490Z,45.09
2018-09-17T16:38:07.889Z,44.42
2018-09-17T16:40:36.182Z,43.50
2018-09-17T16:43:04.536Z,41.87
2018-09-17T16:45:32.850Z,39.78
2018-09-17T16:48:01.406Z,38.37
2018-09-17T16:50:30.187Z,37.36
2018-09-17T16:52:58.601Z,36.68
2018-09-17T16:55:26.870Z,35.69
2018-09-17T16:57:55.429Z,35.02
2018-09-17T17:00:23.767Z,34.62
2018-09-17T17:02:52.272Z,33.98
2018-09-17T17:05:20.877Z,33.53
2018-09-17T17:07:49.119Z,33.14
2018-09-17T17:10:17.773Z,32.73
2018-09-17T17:12:46.093Z,32.32
2018-09-17T17:15:20.853Z,31.97
2018-09-17T17:17:49.186Z,31.67
2018-09-17T17:20:17.439Z,31.46
2018-09-17T17:22:45.767Z,31.24
2018-09-17T17:25:14.191Z,30.97
2018-09-17T17:27:42.625Z,30.64
2018-09-17T17:30:10.950Z,30.43
2018-09-17T17:32:40.399Z,30.16
2018-09-17T17:35:08.738Z,29.99
2018-09-17T17:37:37.026Z,29.86
2018-09-17T17:40:06.347Z,29.63
2018-09-17T17:42:34.636Z,29.44
2018-09-17T17:45:03.010Z,29.29
2018-09-17T17:47:31.347Z,29.18
2018-09-17T17:49:59.682Z,28.96
2018-09-17T17:52:27.994Z,28.78
2018-09-17T17:54:56.351Z,28.74
2018-09-17T17:57:24.629Z,28.54
2018-09-17T17:59:53.006Z,28.35
2018-09-17T18:02:24.676Z,28.27
2018-09-17T18:04:55.416Z,28.19
2018-09-17T18:07:23.831Z,28.11
2018-09-17T18:09:52.141Z,27.93
2018-09-17T18:12:20.440Z,27.87
2018-09-17T18:14:49.066Z,27.70
2018-09-17T18:17:17.371Z,27.55
2018-09-17T18:19:46.008Z,27.49
2018-09-17T18:22:14.298Z,27.42
2018-09-17T18:24:43.649Z,27.38
2018-09-17T18:27:12.040Z,27.31
2018-09-17T18:29:40.341Z,27.28
2018-09-17T18:32:08.738Z,27.27
2018-09-17T18:34:37.029Z,27.21
2018-09-17T18:37:05.630Z,27.11
2018-09-17T18:39:34.024Z,27.00
2018-09-17T18:42:02.406Z,26.91
2018-09-17T18:44:30.770Z,26.73
2018-09-17T18:46:59.103Z,26.63
2018-09-17T18:49:27.428Z,26.58
2018-09-17T18:51:55.727Z,26.53
2018-09-17T18:54:24.091Z,26.39
2018-09-17T18:56:52.568Z,26.37
2018-09-17T18:59:20.915Z,26.23
2018-09-17T19:01:49.236Z,26.28
2018-09-17T19:04:17.559Z,26.25
2018-09-17T19:06:45.975Z,26.06
2018-09-17T19:09:14.454Z,26.03
2018-09-17T19:11:42.794Z,25.99
2018-09-17T19:14:16.523Z,25.96
2018-09-17T19:16:54.152Z,25.90
2018-09-17T19:19:22.703Z,25.97
2018-09-17T19:21:56.603Z,26.38
2018-09-17T19:24:24.764Z,26.81
2018-09-17T19:26:53.109Z,26.64
2018-09-17T19:29:22.261Z,26.43
2018-09-17T19:31:50.645Z,26.19
2018-09-17T19:34:19.039Z,25.88
2018-09-17T19:36:47.550Z,25.74
2018-09-17T19:39:21.508Z,25.49
2018-09-17T19:41:49.867Z,25.33
2018-09-17T19:44:18.160Z,25.18
2018-09-17T19:46:46.495Z,25.12
2018-09-17T19:49:14.844Z,25.00
2018-09-17T19:51:48.464Z,24.83
2018-09-17T19:54:16.822Z,24.87
2018-09-17T19:56:45.151Z,24.78
2018-09-17T19:59:19.028Z,24.77
2018-09-17T20:01:47.344Z,24.68
2018-09-17T20:04:20.940Z,24.64
2018-09-17T20:06:49.476Z,24.60
2018-09-17T20:09:17.799Z,24.58
2018-09-17T20:11:46.268Z,24.63
2018-09-17T20:14:14.680Z,24.56
2018-09-17T20:16:43.111Z,24.44
2018-09-17T20:19:11.750Z,24.31
2018-09-17T20:21:40.150Z,24.20
2018-09-17T20:24:08.650Z,24.23
2018-09-17T20:26:36.995Z,24.04
2018-09-17T20:29:05.534Z,24.20
2018-09-17T20:31:33.887Z,24.07
2018-09-17T20:34:02.969Z,24.12
2018-09-17T20:36:31.638Z,24.06
2018-09-17T20:39:00.188Z,23.85
2018-09-17T20:41:28.501Z,23.78
2018-09-17T20:43:56.899Z,23.71
2018-09-17T20:46:25.155Z,23.65
2018-09-17T20:48:53.654Z,23.66
2018-09-17T20:51:22.060Z,23.49
2018-09-17T20:53:50.375Z,23.43
2018-09-17T20:56:18.687Z,23.25
2018-09-17T20:58:48.293Z,23.23
2018-09-17T21:01:16.951Z,23.21
2018-09-17T21:03:45.634Z,23.18
2018-09-17T21:06:14.040Z,23.00
2018-09-17T21:08:42.458Z,23.03
2018-09-17T21:11:10.813Z,22.98
2018-09-17T21:13:39.480Z,22.90
2018-09-17T21:16:07.946Z,22.82
2018-09-17T21:18:36.317Z,22.78
2018-09-17T21:21:04.869Z,22.76
2018-09-17T21:23:33.297Z,22.66
2018-09-17T21:26:01.585Z,22.70
2018-09-17T21:28:30.017Z,22.74
2018-09-17T21:30:58.597Z,22.72
2018-09-17T21:33:26.759Z,22.63
2018-09-17T21:35:55.323Z,22.52
2018-09-17T21:38:25.138Z,22.44
2018-09-17T21:40:53.628Z,22.46
2018-09-17T21:43:25.257Z,22.36
2018-09-17T21:45:53.679Z,22.43
2018-09-17T21:48:22.251Z,22.41
2018-09-17T21:50:50.541Z,22.20
2018-09-17T21:53:18.814Z,22.41
2018-09-17T21:55:47.434Z,22.46
2018-09-17T21:58:15.794Z,22.37
2018-09-17T22:00:49.712Z,22.27
2018-09-17T22:03:18.192Z,22.17
2018-09-17T22:05:46.535Z,22.07
2018-09-17T22:08:15.017Z,22.03
2018-09-17T22:10:43.476Z,22.18
2018-09-17T22:13:11.836Z,22.16
2018-09-17T22:15:40.287Z,21.90
2018-09-17T22:18:08.684Z,21.98
2018-09-17T22:20:37.000Z,21.99
2018-09-17T22:23:05.324Z,21.89
2018-09-17T22:25:33.761Z,21.90
2018-09-17T22:28:02.396Z,21.85
2018-09-17T22:30:30.653Z,21.92
2018-09-17T22:32:59.056Z,21.77
2018-09-17T22:35:27.401Z,21.79
2018-09-17T22:37:55.687Z,21.59
2018-09-17T22:40:24.067Z,21.58
2018-09-17T22:42:52.373Z,21.54
2018-09-17T22:45:20.716Z,21.51
2018-09-17T22:47:48.984Z,21.56
2018-09-17T22:50:17.418Z,21.34
2018-09-17T22:52:45.909Z,21.30
2018-09-17T22:55:14.312Z,21.15
2018-09-17T22:57:42.671Z,21.24
2018-09-17T23:00:11.065Z,21.20
2018-09-17T23:02:39.356Z,21.13
2018-09-17T23:05:07.779Z,21.15
2018-09-17T23:07:36.135Z,21.16
2018-09-17T23:10:05.021Z,21.16
2018-09-17T23:12:35.030Z,21.13
2018-09-17T23:15:03.489Z,21.14
2018-09-17T23:17:31.846Z,21.15
2018-09-17T23:20:00.196Z,21.19
2018-09-17T23:22:28.481Z,21.19
2018-09-17T23:24:56.791Z,21.16
2018-09-17T23:27:25.170Z,21.13
2018-09-17T23:29:53.505Z,20.85
2018-09-17T23:32:21.755Z,20.83
2018-09-17T23:34:50.222Z,20.88
2018-09-17T23:37:18.733Z,20.27
2018-09-17T23:39:47.117Z,20.42
2018-09-17T23:42:15.465Z,20.56
2018-09-17T23:44:43.866Z,20.20
2018-09-17T23:47:12.162Z,20.19
2018-09-17T23:49:40.458Z,20.50
2018-09-17T23:52:08.759Z,20.40
2018-09-17T23:54:37.037Z,20.35
2018-09-17T23:57:05.416Z,20.54
2018-09-17T23:59:33.718Z,20.72
